Denver, Colorado
Current Conditions -  °F | °C
As of 4:58 PM on Sunday 25 Jan 2015 (Local Time) from KBKF Reporting Station
Few Clouds Few Clouds  
Wind Chill: 51°   Ceiling: Unl
Heat Index: 51°   Visibility: 10mi
Dew Point: 22°   Wind: 7mph
Humidity: 32%   Direction: 290°WNW
Pressure: 30.15"   Gusts: NA
Location:  39.74°N, 104.99°W
Report Text: KBKF 252358Z 29006KT 10SM FEW200 11/M05 A3015 RMK AO2A SLP194 T01071053 10146 20107 53009
Loading
Personal Weather Stations






























Interactive Weather Map New forecast layout! Learn more

10-Day Weather Forecast

Advertisements
Track Severe Weather on mobile